Time;durP1;ratioP1;P1;durP2;ratioP2;P2;SDS_P1;SDS_P2;PMS_P1;PMS_P2;Temp;Humidity;BMP_temperature;BMP_pressure;BME280_temperature;BME280_humidity;BME280_pressure;Samples;Min_cycle;Max_cycle;Signal;HPM_P1;HPM_P2
2023/01/18 00:00:18;;;;;;;4.50;3.05;;;;;;;;;;10209157;28;20077;-64
2023/01/18 00:05:16;;;;;;;2.88;2.38;;;;;;;;;;10209483;28;20057;-64
2023/01/18 00:10:15;;;;;;;7.93;3.33;;;;;;;;;;10208568;28;20072;-63
2023/01/18 00:15:13;;;;;;;7.60;3.47;;;;;;;;;;10209263;28;20074;-64
2023/01/18 00:20:13;;;;;;;9.45;4.85;;;;;;;;;;10210752;28;20388;-64
2023/01/18 00:25:11;;;;;;;7.57;3.65;;;;;;;;;;10208926;28;20069;-64
2023/01/18 00:30:10;;;;;;;10.32;6.72;;;;;;;;;;10209820;28;20085;-64
2023/01/18 00:35:08;;;;;;;7.30;4.38;;;;;;;;;;10208924;28;20490;-64
2023/01/18 00:40:09;;;;;;;5.65;3.10;;;;;;;;;;10207452;28;20085;-64
2023/01/18 00:45:07;;;;;;;5.32;3.40;;;;;;;;;;10209300;28;20076;-64
2023/01/18 00:50:06;;;;;;;4.43;3.55;;;;;;;;;;10207968;28;20080;-63
2023/01/18 00:55:05;;;;;;;5.10;3.20;;;;;;;;;;10208407;28;20085;-63
2023/01/18 01:00:08;;;;;;;4.07;2.58;;;;;;;;;;10207304;28;20070;-63
2023/01/18 01:10:22;;;;;;;4.53;2.40;;;;;;;;;;10217008;28;20108;-63
2023/01/18 01:26:08;;;;;;;;;;;;;;;;;;10215750;28;20073;-63
2023/01/18 01:31:09;;;;;;;8.25;3.60;;;;;;;;;;10215197;28;19968;-64
2023/01/18 01:36:08;;;;;;;7.22;2.88;;;;;;;;;;10215070;28;20071;-65
2023/01/18 01:41:08;;;;;;;9.05;3.67;;;;;;;;;;10214193;28;20085;-63
2023/01/18 01:46:13;;;;;;;9.50;4.22;;;;;;;;;;10214253;28;20524;-65
2023/01/18 01:51:14;;;;;;;9.23;4.13;;;;;;;;;;10215489;28;20506;-63
2023/01/18 01:56:12;;;;;;;9.40;3.78;;;;;;;;;;10208647;28;20078;-65
2023/01/18 02:01:12;;;;;;;6.20;2.47;;;;;;;;;;10214845;28;20632;-64
2023/01/18 02:06:13;;;;;;;10.88;2.97;;;;;;;;;;10213188;28;20486;-63
2023/01/18 02:11:11;;;;;;;7.47;3.00;;;;;;;;;;10214598;28;20439;-64
2023/01/18 02:16:13;;;;;;;6.63;2.85;;;;;;;;;;10212498;28;20084;-63
2023/01/18 02:21:15;;;;;;;4.43;2.60;;;;;;;;;;10214845;28;20089;-63
2023/01/18 02:26:26;;;;;;;7.38;3.05;;;;;;;;;;10213825;28;20097;-63
2023/01/18 02:31:26;;;;;;;9.93;3.55;;;;;;;;;;10213823;28;20081;-64
2023/01/18 02:36:29;;;;;;;9.63;4.25;;;;;;;;;;10212690;28;20081;-63
2023/01/18 02:46:29;;;;;;;12.45;3.70;;;;;;;;;;10211472;28;20472;-65
2023/01/18 02:46:50;;;;;;;15.18;4.20;;;;;;;;;;10212502;28;20073;-64
2023/01/18 02:51:48;;;;;;;7.10;3.30;;;;;;;;;;10213322;28;20084;-65
2023/01/18 02:56:48;;;;;;;10.95;3.88;;;;;;;;;;10207033;28;20041;-64
2023/01/18 03:01:49;;;;;;;9.82;3.22;;;;;;;;;;10212073;28;20100;-64
2023/01/18 03:06:52;;;;;;;10.52;3.47;;;;;;;;;;10211757;28;20892;-65
2023/01/18 03:11:57;;;;;;;14.52;5.40;;;;;;;;;;10211774;28;20463;-64
2023/01/18 03:16:59;;;;;;;13.93;3.88;;;;;;;;;;10210855;28;20680;-64
2023/01/18 03:21:59;;;;;;;11.23;4.28;;;;;;;;;;10211591;28;20081;-63
2023/01/18 03:37:36;;;;;;;10.07;3.92;;;;;;;;;;10210763;28;20045;-66
2023/01/18 03:42:37;;;;;;;14.93;3.65;;;;;;;;;;10209238;28;20476;-63
2023/01/18 03:47:36;;;;;;;8.15;2.97;;;;;;;;;;10209344;28;20483;-64
2023/01/18 03:52:39;;;;;;;10.23;3.80;;;;;;;;;;10209513;28;20076;-63
2023/01/18 03:57:39;;;;;;;9.23;3.13;;;;;;;;;;10209625;28;20068;-65
2023/01/18 04:02:37;;;;;;;8.88;4.07;;;;;;;;;;10210760;28;20068;-65
2023/01/18 04:07:37;;;;;;;10.10;3.65;;;;;;;;;;10210011;28;20069;-64
2023/01/18 04:12:36;;;;;;;8.20;3.10;;;;;;;;;;10209570;28;20109;-64
2023/01/18 04:17:34;;;;;;;13.48;3.80;;;;;;;;;;10207526;28;20070;-64
2023/01/18 04:22:32;;;;;;;10.23;4.00;;;;;;;;;;10209186;28;20076;-64
2023/01/18 04:27:32;;;;;;;11.50;2.80;;;;;;;;;;10208666;28;20066;-64
2023/01/18 04:32:30;;;;;;;8.02;2.85;;;;;;;;;;10204536;28;20065;-65
2023/01/18 04:37:29;;;;;;;8.55;2.95;;;;;;;;;;10209298;28;20065;-64
2023/01/18 04:42:29;;;;;;;9.68;3.33;;;;;;;;;;10213407;28;20586;-65
2023/01/18 04:47:28;;;;;;;6.60;3.38;;;;;;;;;;10216122;28;20095;-65
2023/01/18 04:52:30;;;;;;;9.82;3.03;;;;;;;;;;10216156;28;20084;-63
2023/01/18 04:57:29;;;;;;;9.60;4.00;;;;;;;;;;10213896;28;20092;-62
2023/01/18 05:02:28;;;;;;;11.20;5.68;;;;;;;;;;10215896;28;20073;-64
2023/01/18 05:07:29;;;;;;;11.02;3.17;;;;;;;;;;10215295;28;20080;-64
2023/01/18 05:12:28;;;;;;;10.52;3.55;;;;;;;;;;10213507;28;20573;-65
2023/01/18 05:17:29;;;;;;;11.77;3.63;;;;;;;;;;10214075;28;20077;-66
2023/01/18 05:22:28;;;;;;;11.82;4.15;;;;;;;;;;10218330;28;20065;-63
2023/01/18 05:27:27;;;;;;;7.65;3.20;;;;;;;;;;10211141;28;20073;-64
2023/01/18 05:32:25;;;;;;;9.27;3.72;;;;;;;;;;10214327;28;20503;-64
2023/01/18 05:37:23;;;;;;;22.60;4.55;;;;;;;;;;10217996;28;20081;-63
2023/01/18 05:42:24;;;;;;;8.82;3.30;;;;;;;;;;10216207;28;20089;-64
2023/01/18 05:47:24;;;;;;;9.02;4.28;;;;;;;;;;10217063;28;20530;-65
2023/01/18 05:52:24;;;;;;;10.57;3.80;;;;;;;;;;10219164;28;20104;-64
2023/01/18 05:57:27;;;;;;;12.35;3.85;;;;;;;;;;10199839;28;20506;-65
2023/01/18 06:02:25;;;;;;;10.52;3.33;;;;;;;;;;10200605;28;20128;-65
2023/01/18 06:07:23;;;;;;;11.02;3.65;;;;;;;;;;10208598;28;20073;-64
2023/01/18 06:12:21;;;;;;;13.00;3.13;;;;;;;;;;10219349;28;20470;-63
2023/01/18 06:17:21;;;;;;;12.85;3.63;;;;;;;;;;10211689;28;20077;-64
2023/01/18 06:22:19;;;;;;;9.55;3.75;;;;;;;;;;10213116;28;20115;-64
2023/01/18 06:27:18;;;;;;;17.13;4.88;;;;;;;;;;10213350;28;20081;-64
2023/01/18 06:32:16;;;;;;;15.13;3.63;;;;;;;;;;10212534;28;20068;-64
2023/01/18 06:37:15;;;;;;;15.10;6.85;;;;;;;;;;10211878;28;20467;-65
2023/01/18 06:42:13;;;;;;;18.70;10.85;;;;;;;;;;10211837;28;20069;-64
2023/01/18 06:47:14;;;;;;;8.95;5.60;;;;;;;;;;10199415;28;20081;-63
2023/01/18 06:52:12;;;;;;;12.70;7.18;;;;;;;;;;10214688;28;20061;-62
2023/01/18 06:57:12;;;;;;;15.45;4.72;;;;;;;;;;10212489;28;20169;-64
2023/01/18 07:02:13;;;;;;;14.27;4.50;;;;;;;;;;10211396;28;20076;-64
2023/01/18 07:07:11;;;;;;;13.63;3.55;;;;;;;;;;10211392;28;20448;-63
2023/01/18 07:12:09;;;;;;;8.18;3.65;;;;;;;;;;10208357;28;20072;-62
2023/01/18 07:17:09;;;;;;;10.98;4.20;;;;;;;;;;10208317;28;20468;-63
2023/01/18 07:22:07;;;;;;;14.25;3.80;;;;;;;;;;10206819;28;20061;-64
2023/01/18 07:27:05;;;;;;;16.05;5.03;;;;;;;;;;10210176;28;20085;-64
2023/01/18 07:32:03;;;;;;;13.80;3.42;;;;;;;;;;10211798;28;20073;-64
2023/01/18 07:37:03;;;;;;;10.20;3.47;;;;;;;;;;10203809;28;20077;-62
2023/01/18 07:42:01;;;;;;;14.15;4.15;;;;;;;;;;10203642;28;20076;-64
2023/01/18 07:46:59;;;;;;;12.82;3.88;;;;;;;;;;10207809;28;20077;-65
2023/01/18 07:51:57;;;;;;;9.18;3.75;;;;;;;;;;10209214;28;20069;-65
2023/01/18 07:56:58;;;;;;;10.13;4.07;;;;;;;;;;10205049;28;20081;-64
2023/01/18 08:01:56;;;;;;;12.10;3.53;;;;;;;;;;10209600;28;20092;-64
2023/01/18 08:06:57;;;;;;;10.18;4.00;;;;;;;;;;10208479;28;20477;-64
2023/01/18 08:11:56;;;;;;;12.23;3.55;;;;;;;;;;10207348;28;20944;-63
2023/01/18 08:16:54;;;;;;;12.32;3.95;;;;;;;;;;10208814;28;20096;-64
2023/01/18 08:21:53;;;;;;;10.55;5.47;;;;;;;;;;10209804;28;20163;-64
2023/01/18 08:26:51;;;;;;;14.85;2.95;;;;;;;;;;10207417;28;20077;-64
2023/01/18 08:31:52;;;;;;;14.50;3.42;;;;;;;;;;10210110;28;20088;-64
2023/01/18 08:36:50;;;;;;;15.63;4.25;;;;;;;;;;10208606;28;20069;-64
2023/01/18 08:41:49;;;;;;;11.13;4.53;;;;;;;;;;10204931;28;20073;-65
2023/01/18 08:46:47;;;;;;;10.88;3.90;;;;;;;;;;10206925;28;20724;-64
2023/01/18 08:51:46;;;;;;;14.65;4.78;;;;;;;;;;10209793;28;20518;-64
2023/01/18 08:56:44;;;;;;;10.85;3.58;;;;;;;;;;10208273;28;20061;-64
2023/01/18 09:01:43;;;;;;;14.63;3.42;;;;;;;;;;10207832;28;20072;-65
2023/01/18 09:06:43;;;;;;;9.77;3.13;;;;;;;;;;10206967;28;20494;-64
2023/01/18 09:11:43;;;;;;;12.43;4.13;;;;;;;;;;10208207;28;20080;-65
2023/01/18 09:16:41;;;;;;;14.70;4.38;;;;;;;;;;10207447;28;20072;-65
2023/01/18 09:21:39;;;;;;;14.50;3.80;;;;;;;;;;10208812;28;20070;-64
2023/01/18 09:26:37;;;;;;;11.90;3.78;;;;;;;;;;10213340;28;20093;-64
2023/01/18 09:31:37;;;;;;;11.90;3.53;;;;;;;;;;10214361;28;20099;-64
2023/01/18 09:36:35;;;;;;;10.75;3.03;;;;;;;;;;10216827;28;20076;-64
2023/01/18 09:41:35;;;;;;;19.23;4.20;;;;;;;;;;10215715;28;20068;-65
2023/01/18 09:46:34;;;;;;;13.55;3.35;;;;;;;;;;10216322;28;20082;-64
2023/01/18 09:51:40;;;;;;;6.68;3.15;;;;;;;;;;10213549;28;20482;-64
2023/01/18 09:56:42;;;;;;;9.18;3.08;;;;;;;;;;10214411;28;20068;-65
2023/01/18 10:01:41;;;;;;;14.15;3.47;;;;;;;;;;10214313;28;20064;-65
2023/01/18 10:06:44;;;;;;;9.35;4.00;;;;;;;;;;10214034;28;20069;-64
2023/01/18 10:11:46;;;;;;;9.82;3.00;;;;;;;;;;10210799;28;20061;-65
2023/01/18 10:16:48;;;;;;;10.38;3.40;;;;;;;;;;10212445;28;20065;-64
2023/01/18 10:21:52;;;;;;;14.68;4.18;;;;;;;;;;10213914;28;20069;-65
2023/01/18 10:26:52;;;;;;;8.95;3.67;;;;;;;;;;10212894;28;20503;-65
2023/01/18 10:31:56;;;;;;;10.88;3.47;;;;;;;;;;10215061;28;20560;-65
2023/01/18 10:36:57;;;;;;;14.35;4.07;;;;;;;;;;10209714;28;20076;-64
2023/01/18 10:41:57;;;;;;;12.55;5.55;;;;;;;;;;10212239;28;20064;-65
2023/01/18 10:46:56;;;;;;;15.57;3.90;;;;;;;;;;10212102;28;20076;-65
2023/01/18 10:51:55;;;;;;;17.95;3.92;;;;;;;;;;10212618;28;20065;-63
2023/01/18 10:57:01;;;;;;;13.90;4.32;;;;;;;;;;10208418;28;20100;-64
2023/01/18 11:02:00;;;;;;;7.57;3.25;;;;;;;;;;10210395;28;20067;-64
2023/01/18 11:07:01;;;;;;;9.55;3.13;;;;;;;;;;10210801;28;20069;-65
2023/01/18 11:12:36;;;;;;;37.78;15.82;;;;;;;;;;10211604;28;20066;-64
2023/01/18 11:17:34;;;;;;;11.32;3.45;;;;;;;;;;10211262;28;20072;-64
2023/01/18 11:22:35;;;;;;;11.98;3.10;;;;;;;;;;10206047;28;20076;-64
2023/01/18 11:27:33;;;;;;;11.65;2.90;;;;;;;;;;10206189;28;20076;-65
2023/01/18 11:32:32;;;;;;;11.82;3.75;;;;;;;;;;10210608;28;20072;-65
2023/01/18 11:37:33;;;;;;;9.45;3.53;;;;;;;;;;10210082;28;20917;-65
2023/01/18 11:42:34;;;;;;;14.00;4.40;;;;;;;;;;10209625;28;20072;-64
2023/01/18 11:47:37;;;;;;;14.25;3.88;;;;;;;;;;10209420;28;20081;-64
2023/01/18 11:52:41;;;;;;;13.30;4.53;;;;;;;;;;10210677;28;20092;-65
2023/01/18 11:57:40;;;;;;;11.17;4.77;;;;;;;;;;10209012;28;20069;-63
2023/01/18 12:02:57;;;;;;;8.60;3.22;;;;;;;;;;10220620;28;20354;-63
2023/01/18 12:08:03;;;;;;;11.13;3.45;;;;;;;;;;10204884;28;20077;-64
2023/01/18 12:13:07;;;;;;;10.55;3.50;;;;;;;;;;10208750;28;20077;-64
2023/01/18 12:18:12;;;;;;;6.88;3.83;;;;;;;;;;10209408;28;20553;-64
2023/01/18 12:23:21;;;;;;;14.85;4.43;;;;;;;;;;10209103;28;20076;-64
2023/01/18 12:28:25;;;;;;;12.45;4.18;;;;;;;;;;10209041;28;20084;-64
2023/01/18 12:33:29;;;;;;;10.57;4.68;;;;;;;;;;10210279;28;20073;-64
2023/01/18 12:38:41;;;;;;;12.52;4.95;;;;;;;;;;10209008;28;20079;-64
2023/01/18 12:43:44;;;;;;;12.48;3.45;;;;;;;;;;10208002;28;20072;-64
2023/01/18 12:48:45;;;;;;;11.50;4.88;;;;;;;;;;10208084;28;20069;-64
2023/01/18 12:53:45;;;;;;;9.68;3.45;;;;;;;;;;10208524;28;20068;-64
2023/01/18 12:58:47;;;;;;;17.55;9.50;;;;;;;;;;10208071;28;20647;-64
2023/01/18 13:03:46;;;;;;;11.25;4.80;;;;;;;;;;10216108;28;20064;-65
2023/01/18 13:08:47;;;;;;;10.15;3.17;;;;;;;;;;10218405;28;20076;-63
2023/01/18 13:13:47;;;;;;;10.05;4.25;;;;;;;;;;10214561;28;20073;-64
2023/01/18 13:18:49;;;;;;;13.82;4.82;;;;;;;;;;10216452;28;20085;-64
2023/01/18 13:23:50;;;;;;;13.73;5.55;;;;;;;;;;10210713;28;20073;-65
2023/01/18 13:34:27;;;;;;;8.73;3.70;;;;;;;;;;10325955;27;20382;-64
2023/01/18 13:39:26;;;;;;;9.10;4.45;;;;;;;;;;10324247;28;20482;-64
2023/01/18 13:44:28;;;;;;;12.30;4.75;;;;;;;;;;10322930;28;20044;-65
2023/01/18 13:49:34;;;;;;;11.35;4.72;;;;;;;;;;10323537;28;20045;-65
2023/01/18 13:54:54;;;;;;;10.25;3.92;;;;;;;;;;10324947;28;20048;-64
2023/01/18 13:59:52;;;;;;;12.70;6.85;;;;;;;;;;10323817;28;20072;-66
2023/01/18 14:05:03;;;;;;;13.80;6.95;;;;;;;;;;10326035;28;20048;-64
2023/01/18 14:10:02;;;;;;;16.13;6.53;;;;;;;;;;10325339;28;20095;-64
2023/01/18 14:15:01;;;;;;;14.43;4.03;;;;;;;;;;10325186;28;20079;-65
2023/01/18 14:20:22;;;;;;;13.13;5.13;;;;;;;;;;10324299;28;20066;-64
2023/01/18 14:25:37;;;;;;;11.50;4.93;;;;;;;;;;10323891;28;20094;-65
2023/01/18 14:30:37;;;;;;;11.75;3.63;;;;;;;;;;10322065;28;20095;-65
2023/01/18 14:35:37;;;;;;;11.60;4.30;;;;;;;;;;10324401;28;20080;-65
2023/01/18 14:40:36;;;;;;;12.23;4.80;;;;;;;;;;10323419;28;20080;-65
2023/01/18 14:45:35;;;;;;;9.85;4.18;;;;;;;;;;10297904;28;20463;-65
2023/01/18 14:50:37;;;;;;;14.15;7.13;;;;;;;;;;10293770;28;20084;-64
2023/01/18 14:55:36;;;;;;;10.93;4.93;;;;;;;;;;10295587;28;20247;-64
2023/01/18 15:00:41;;;;;;;14.30;6.63;;;;;;;;;;10293149;28;20509;-64
2023/01/18 15:05:40;;;;;;;;;;;;;;;;;;10294876;28;20451;-64
2023/01/18 15:10:39;;;;;;;;;;;;;;;;;;10296534;28;19968;-64
2023/01/18 15:15:36;;;;;;;;;;;;;;;;;;10295350;28;19983;-64
2023/01/18 15:20:34;;;;;;;;;;;;;;;;;;10296342;28;19960;-65
2023/01/18 15:25:32;;;;;;;;;;;;;;;;;;10292481;28;19963;-65
2023/01/18 15:30:30;;;;;;;;;;;;;;;;;;10277001;28;19960;-64
2023/01/18 15:35:28;;;;;;;;;;;;;;;;;;10270385;28;19955;-64
2023/01/18 15:40:27;;;;;;;;;;;;;;;;;;10291539;28;19948;-64
2023/01/18 15:45:25;;;;;;;;;;;;;;;;;;10279741;28;19967;-63
2023/01/18 15:50:23;;;;;;;;;;;;;;;;;;10284329;28;19971;-64
2023/01/18 15:55:20;;;;;;;;;;;;;;;;;;10293404;28;19959;-61
2023/01/18 16:00:18;;;;;;;;;;;;;;;;;;10281002;28;20389;-61
2023/01/18 16:05:16;;;;;;;;;;;;;;;;;;10272328;28;19967;-64
2023/01/18 16:10:14;;;;;;;;;;;;;;;;;;10268900;28;19982;-64
2023/01/18 16:15:12;;;;;;;;;;;;;;;;;;10264644;28;19951;-65
2023/01/18 16:20:15;;;;;;;;;;;;;;;;;;10266522;28;19948;-64
2023/01/18 16:25:13;;;;;;;;;;;;;;;;;;10278835;28;19956;-65
2023/01/18 16:30:11;;;;;;;;;;;;;;;;;;10267714;28;19971;-63
2023/01/18 16:35:09;;;;;;;;;;;;;;;;;;10274986;28;19964;-64
2023/01/18 16:40:07;;;;;;;;;;;;;;;;;;10270623;28;20393;-63
2023/01/18 16:45:05;;;;;;;;;;;;;;;;;;10274917;28;20398;-64
2023/01/18 16:50:03;;;;;;;;;;;;;;;;;;10288813;28;19963;-64
2023/01/18 16:55:03;;;;;;;;;;;;;;;;;;10263278;28;19959;-64
2023/01/18 17:00:01;;;;;;;;;;;;;;;;;;10255673;28;19955;-64
2023/01/18 17:04:59;;;;;;;;;;;;;;;;;;10284611;28;19967;-64
2023/01/18 17:09:57;;;;;;;;;;;;;;;;;;10289576;28;20374;-66
2023/01/18 17:14:55;;;;;;;;;;;;;;;;;;10278072;28;20223;-66
2023/01/18 17:19:53;;;;;;;;;;;;;;;;;;10275389;28;20390;-66
2023/01/18 17:24:53;;;;;;;;;;;;;;;;;;10283366;28;19955;-65
2023/01/18 17:29:50;;;;;;;;;;;;;;;;;;10283573;28;19963;-64
2023/01/18 17:34:48;;;;;;;;;;;;;;;;;;10289062;28;19967;-65
2023/01/18 17:39:46;;;;;;;;;;;;;;;;;;10287715;28;19963;-64
2023/01/18 17:45:04;;;;;;;;;;;;;;;;;;10266407;28;20344;-65
2023/01/18 17:50:07;;;;;;;;;;;;;;;;;;10275439;28;19973;-65
2023/01/18 17:55:06;;;;;;;;;;;;;;;;;;10276801;28;19956;-65
2023/01/18 18:00:04;;;;;;;;;;;;;;;;;;10254039;28;19960;-65
2023/01/18 18:05:04;;;;;;;;;;;;;;;;;;10245909;28;19952;-64
2023/01/18 18:10:02;;;;;;;;;;;;;;;;;;10261229;28;19967;-65
2023/01/18 18:15:00;;;;;;;;;;;;;;;;;;10256291;28;19955;-64
2023/01/18 18:19:58;;;;;;;;;;;;;;;;;;10255933;28;19975;-64
2023/01/18 18:24:56;;;;;;;;;;;;;;;;;;10264947;28;19963;-65
2023/01/18 18:29:54;;;;;;;;;;;;;;;;;;10262272;28;19944;-64
2023/01/18 18:34:51;;;;;;;;;;;;;;;;;;10294384;28;19986;-64
2023/01/18 18:39:49;;;;;;;;;;;;;;;;;;10277335;28;19991;-64
2023/01/18 18:44:47;;;;;;;;;;;;;;;;;;10281806;28;19962;-63
2023/01/18 18:49:45;;;;;;;;;;;;;;;;;;10275189;28;19987;-64
2023/01/18 18:54:43;;;;;;;;;;;;;;;;;;10263898;28;19959;-64
2023/01/18 18:59:41;;;;;;;;;;;;;;;;;;10262962;28;20420;-65
2023/01/18 19:04:39;;;;;;;;;;;;;;;;;;10248062;28;19960;-63
2023/01/18 19:09:37;;;;;;;;;;;;;;;;;;10264297;28;19979;-64
2023/01/18 19:14:35;;;;;;;;;;;;;;;;;;10266232;28;20014;-65
2023/01/18 19:19:32;;;;;;;;;;;;;;;;;;10269766;28;20047;-64
2023/01/18 19:24:33;;;;;;;;;;;;;;;;;;10291704;28;19947;-63
2023/01/18 19:29:31;;;;;;;;;;;;;;;;;;10279506;28;19966;-63
2023/01/18 19:34:29;;;;;;;;;;;;;;;;;;10276823;28;19970;-63
2023/01/18 19:39:27;;;;;;;;;;;;;;;;;;10262932;28;19956;-63
2023/01/18 19:44:25;;;;;;;;;;;;;;;;;;10260926;28;19972;-62
2023/01/18 19:49:24;;;;;;;;;;;;;;;;;;10264987;28;19962;-64
2023/01/18 19:54:23;;;;;;;;;;;;;;;;;;10268816;28;19959;-64
2023/01/18 19:59:21;;;;;;;;;;;;;;;;;;10269086;28;20420;-64
2023/01/18 20:04:18;;;;;;;;;;;;;;;;;;10272332;28;20226;-63
2023/01/18 20:09:16;;;;;;;;;;;;;;;;;;10269283;28;20390;-63
2023/01/18 20:14:19;;;;;;;;;;;;;;;;;;10286816;28;19962;-64
2023/01/18 20:19:21;;;;;;;;;;;;;;;;;;10279899;28;19968;-64
2023/01/18 20:24:19;;;;;;;;;;;;;;;;;;10271135;28;19963;-65
2023/01/18 20:29:17;;;;;;;;;;;;;;;;;;10266214;28;20354;-63
2023/01/18 20:34:15;;;;;;;;;;;;;;;;;;10264521;28;19964;-63
2023/01/18 20:39:13;;;;;;;;;;;;;;;;;;10265493;28;19956;-64
2023/01/18 20:44:11;;;;;;;;;;;;;;;;;;10273289;28;19956;-64
2023/01/18 20:49:09;;;;;;;;;;;;;;;;;;10261513;28;19971;-64
2023/01/18 20:54:07;;;;;;;;;;;;;;;;;;10266855;28;19967;-64
2023/01/18 20:59:05;;;;;;;;;;;;;;;;;;10269359;28;19990;-64
2023/01/18 21:04:03;;;;;;;;;;;;;;;;;;10272208;28;20035;-63
2023/01/18 21:09:01;;;;;;;;;;;;;;;;;;10269798;28;20389;-62
2023/01/18 21:13:59;;;;;;;;;;;;;;;;;;10266647;28;19971;-63
2023/01/18 21:18:57;;;;;;;;;;;;;;;;;;10271826;28;19963;-63
2023/01/18 21:23:55;;;;;;;;;;;;;;;;;;10267950;28;19956;-62
2023/01/18 21:28:53;;;;;;;;;;;;;;;;;;10268237;28;19971;-63
2023/01/18 21:33:51;;;;;;;;;;;;;;;;;;10287094;28;19966;-63
2023/01/18 21:38:49;;;;;;;;;;;;;;;;;;10291806;28;19956;-64
2023/01/18 21:49:02;;;;;;;;;;;;;;;;;;10286830;28;20419;-63
2023/01/18 21:54:14;;;;;;;;;;;;;;;;;;10296436;28;19968;-65
2023/01/18 21:59:12;;;;;;;;;;;;;;;;;;10295530;28;19959;-62
2023/01/18 22:09:26;;;;;;;;;;;;;;;;;;10280621;28;20399;-64
2023/01/18 22:14:23;;;;;;;;;;;;;;;;;;10299237;28;19963;-64
2023/01/18 22:19:21;;;;;;;;;;;;;;;;;;10298079;28;19964;-64
2023/01/18 22:24:19;;;;;;;;;;;;;;;;;;10294646;28;20388;-64
2023/01/18 22:29:17;;;;;;;;;;;;;;;;;;10295179;28;19967;-64
2023/01/18 22:34:15;;;;;;;;;;;;;;;;;;10296721;28;19964;-64
2023/01/18 22:39:13;;;;;;;;;;;;;;;;;;10296981;28;19962;-64
2023/01/18 22:44:10;;;;;;;;;;;;;;;;;;10293250;28;19975;-64
2023/01/18 22:49:08;;;;;;;;;;;;;;;;;;10296721;28;19971;-64
2023/01/18 22:54:06;;;;;;;;;;;;;;;;;;10294511;28;20397;-64
2023/01/18 22:59:04;;;;;;;;;;;;;;;;;;10297406;28;19959;-64
2023/01/18 23:04:02;;;;;;;;;;;;;;;;;;10295151;28;19920;-64
2023/01/18 23:09:00;;;;;;;;;;;;;;;;;;10297069;28;20374;-64
2023/01/18 23:19:13;;;;;;;;;;;;;;;;;;10294595;28;19956;-64
2023/01/18 23:24:11;;;;;;;;;;;;;;;;;;10291555;28;19960;-63
2023/01/18 23:29:09;;;;;;;;;;;;;;;;;;10290742;28;19959;-64
2023/01/18 23:34:07;;;;;;;;;;;;;;;;;;10292094;28;20385;-63
2023/01/18 23:54:51;;;;;;;;;;;;;;;;;;10290362;28;19960;-64
2023/01/18 23:59:51;;;;;;;;;;;;;;;;;;10291443;28;20408;-64
